createdAt,value
2017-05-19T00:01:00.204Z,18.20
2017-05-19T00:03:27.222Z,18.10
2017-05-19T00:05:54.627Z,18.10
2017-05-19T00:08:22.374Z,18.00
2017-05-19T00:10:50.167Z,18.20
2017-05-19T00:13:17.698Z,18.30
2017-05-19T00:15:44.709Z,18.20
2017-05-19T00:18:11.748Z,18.00
2017-05-19T00:20:39.043Z,18.00
2017-05-19T00:23:06.063Z,18.00
2017-05-19T00:25:33.084Z,17.80
2017-05-19T00:28:00.479Z,17.80
2017-05-19T00:30:27.500Z,17.80
2017-05-19T00:32:54.501Z,17.50
2017-05-19T00:35:22.664Z,17.50
2017-05-19T00:37:50.452Z,17.60
2017-05-19T00:40:18.200Z,17.60
2017-05-19T00:42:45.655Z,17.60
2017-05-19T00:45:12.729Z,17.60
2017-05-19T00:47:39.852Z,17.60
2017-05-19T00:50:07.203Z,17.60
2017-05-19T00:52:34.216Z,17.60
2017-05-19T00:55:01.216Z,17.50
2017-05-19T00:57:29.370Z,17.40
2017-05-19T00:59:56.373Z,17.70
2017-05-19T01:02:23.397Z,17.80
2017-05-19T01:04:50.724Z,17.60
2017-05-19T01:07:18.516Z,17.50
2017-05-19T01:09:45.531Z,17.50
2017-05-19T01:12:12.896Z,17.50
2017-05-19T01:14:40.657Z,17.50
2017-05-19T01:17:07.664Z,17.50
2017-05-19T01:19:35.043Z,17.50
2017-05-19T01:22:02.044Z,17.50
2017-05-19T01:24:29.158Z,17.80
2017-05-19T01:26:57.341Z,17.90
2017-05-19T01:29:25.112Z,17.80
2017-05-19T01:31:52.903Z,17.90
2017-05-19T01:34:20.525Z,17.90
2017-05-19T01:36:48.311Z,17.90
2017-05-19T01:39:15.385Z,17.80
2017-05-19T01:41:42.796Z,17.50
2017-05-19T01:44:10.576Z,17.10
2017-05-19T01:46:37.665Z,16.90
2017-05-19T01:49:05.165Z,17.10
2017-05-19T01:51:32.927Z,17.30
2017-05-19T01:53:59.963Z,17.40
2017-05-19T01:56:27.429Z,17.50
2017-05-19T01:58:54.433Z,17.30
2017-05-19T02:01:21.470Z,17.10
2017-05-19T02:03:48.827Z,17.10
2017-05-19T02:06:15.849Z,17.30
2017-05-19T02:08:42.867Z,17.30
2017-05-19T02:11:10.440Z,17.40
2017-05-19T02:13:37.463Z,17.50
2017-05-19T02:16:04.470Z,17.60
2017-05-19T02:18:31.773Z,17.60
2017-05-19T02:20:58.803Z,17.30
2017-05-19T02:23:25.821Z,17.20
2017-05-19T02:25:53.344Z,17.30
2017-05-19T02:28:21.100Z,17.40
2017-05-19T02:30:48.123Z,17.50
2017-05-19T02:33:15.505Z,17.60
2017-05-19T02:35:42.519Z,17.60
2017-05-19T02:38:09.526Z,17.40
2017-05-19T02:40:37.684Z,17.30
2017-05-19T02:43:05.412Z,17.10
2017-05-19T02:45:32.454Z,17.00
2017-05-19T02:47:59.950Z,16.90
2017-05-19T02:50:26.977Z,16.80
2017-05-19T02:52:53.987Z,16.60
2017-05-19T02:55:21.385Z,16.50
2017-05-19T02:57:48.412Z,16.50
2017-05-19T03:00:15.434Z,16.50
2017-05-19T03:02:42.776Z,16.30
2017-05-19T03:05:09.806Z,16.50
2017-05-19T03:07:36.839Z,16.90
2017-05-19T03:10:04.368Z,16.90
2017-05-19T03:12:31.371Z,16.90
2017-05-19T03:14:59.136Z,16.90
2017-05-19T03:17:27.226Z,16.90
2017-05-19T03:19:54.264Z,17.00
2017-05-19T03:22:21.340Z,17.10
2017-05-19T03:24:48.698Z,16.80
2017-05-19T03:27:15.716Z,16.60
2017-05-19T03:29:42.746Z,16.40
2017-05-19T03:32:10.076Z,16.50
2017-05-19T03:34:37.720Z,16.60
2017-05-19T03:37:04.772Z,16.70
2017-05-19T03:39:32.270Z,16.70
2017-05-19T03:42:00.002Z,16.90
2017-05-19T03:44:27.033Z,17.20
2017-05-19T03:46:54.434Z,17.10
2017-05-19T03:49:22.268Z,17.00
2017-05-19T03:51:49.289Z,17.20
2017-05-19T03:54:16.703Z,17.30
2017-05-19T03:56:44.476Z,17.40
2017-05-19T03:59:12.261Z,17.60
2017-05-19T04:01:40.006Z,17.90
2017-05-19T04:04:07.038Z,17.70
2017-05-19T04:06:34.722Z,17.50
2017-05-19T04:09:02.877Z,17.30
2017-05-19T04:11:30.656Z,17.30
2017-05-19T04:13:58.425Z,17.40
2017-05-19T04:16:26.585Z,17.40
2017-05-19T04:18:54.446Z,17.50
2017-05-19T04:21:22.259Z,17.60
2017-05-19T04:23:49.663Z,17.80
2017-05-19T04:26:16.681Z,17.70
2017-05-19T04:28:43.861Z,17.80
2017-05-19T04:31:11.440Z,17.80
2017-05-19T04:33:39.223Z,17.70
2017-05-19T04:36:06.241Z,17.70
2017-05-19T04:38:34.404Z,17.70
2017-05-19T04:41:01.435Z,17.70
2017-05-19T04:43:28.463Z,17.70
2017-05-19T04:45:55.941Z,17.60
2017-05-19T04:48:22.948Z,17.50
2017-05-19T04:50:49.992Z,17.50
2017-05-19T04:53:17.520Z,17.50
2017-05-19T04:55:44.540Z,17.50
2017-05-19T04:58:11.563Z,17.60
2017-05-19T05:00:38.996Z,17.70
2017-05-19T05:03:06.036Z,17.60
2017-05-19T05:05:33.064Z,17.50
2017-05-19T05:08:00.510Z,17.30
2017-05-19T05:10:27.553Z,17.20
2017-05-19T05:12:54.574Z,17.30
2017-05-19T05:15:21.957Z,17.20
2017-05-19T05:17:48.980Z,17.30
2017-05-19T05:20:16.024Z,17.10
2017-05-19T05:22:43.401Z,17.10
2017-05-19T05:25:10.446Z,17.40
2017-05-19T05:27:38.229Z,17.30
2017-05-19T05:30:05.826Z,17.30
2017-05-19T05:32:32.853Z,17.20
2017-05-19T05:35:00.651Z,17.10
2017-05-19T05:37:28.064Z,17.00
2017-05-19T05:39:55.848Z,17.00
2017-05-19T05:42:22.855Z,17.20
2017-05-19T05:44:50.253Z,17.10
2017-05-19T05:47:17.252Z,17.10
2017-05-19T05:49:44.274Z,17.10
2017-05-19T05:52:11.638Z,17.30
2017-05-19T05:54:38.672Z,17.50
2017-05-19T05:57:06.480Z,17.60
2017-05-19T05:59:34.634Z,17.60
2017-05-19T06:02:02.457Z,17.50
2017-05-19T06:04:29.456Z,17.60
2017-05-19T06:06:57.551Z,17.40
2017-05-19T06:09:24.546Z,17.40
2017-05-19T06:11:51.572Z,17.60
2017-05-19T06:14:18.917Z,17.60
2017-05-19T06:16:45.947Z,17.50
2017-05-19T06:19:12.976Z,17.50
2017-05-19T06:21:40.906Z,17.30
2017-05-19T06:24:08.710Z,17.40
2017-05-19T06:26:35.907Z,17.40
2017-05-19T06:29:03.351Z,17.30
2017-05-19T06:31:30.403Z,17.10
2017-05-19T06:33:57.554Z,17.10
2017-05-19T06:36:25.023Z,17.20
2017-05-19T06:38:52.066Z,17.30
2017-05-19T06:41:19.858Z,17.20
2017-05-19T06:43:47.276Z,17.50
2017-05-19T06:46:15.089Z,17.60
2017-05-19T06:48:42.117Z,17.40
2017-05-19T06:51:09.538Z,17.40
2017-05-19T06:53:36.576Z,17.50
2017-05-19T06:56:03.733Z,17.40
2017-05-19T06:58:31.912Z,17.40
2017-05-19T07:00:59.686Z,17.70
2017-05-19T07:03:26.708Z,17.50
2017-05-19T07:05:54.172Z,17.30
2017-05-19T07:08:21.217Z,17.30
2017-05-19T07:10:48.983Z,17.40
2017-05-19T07:13:16.439Z,17.70
2017-05-19T07:15:43.509Z,17.80
2017-05-19T07:18:10.566Z,17.80
2017-05-19T07:20:37.983Z,17.60
2017-05-19T07:23:05.324Z,17.50
2017-05-19T07:25:32.566Z,17.50
2017-05-19T07:28:00.043Z,17.70
2017-05-19T07:30:27.150Z,17.80
2017-05-19T07:32:54.224Z,17.80
2017-05-19T07:35:22.404Z,17.80
2017-05-19T07:37:49.517Z,17.90
2017-05-19T07:40:16.547Z,17.70
2017-05-19T07:42:43.941Z,17.60
2017-05-19T07:45:11.712Z,17.50
2017-05-19T07:47:39.517Z,17.50
2017-05-19T07:50:06.930Z,17.60
2017-05-19T07:52:34.751Z,17.80
2017-05-19T07:55:01.934Z,18.20
2017-05-19T07:57:30.081Z,18.40
2017-05-19T07:59:57.154Z,18.50
2017-05-19T08:02:24.204Z,18.60
2017-05-19T08:04:52.358Z,18.80
2017-05-19T08:07:19.403Z,18.90
2017-05-19T08:09:46.440Z,19.10
2017-05-19T08:12:13.796Z,19.10
2017-05-19T08:14:40.873Z,19.20
2017-05-19T08:17:07.988Z,19.20
2017-05-19T08:19:35.340Z,19.30
2017-05-19T08:22:03.156Z,19.30
2017-05-19T08:24:30.223Z,19.50
2017-05-19T08:26:57.624Z,19.60
2017-05-19T08:29:25.416Z,19.60
2017-05-19T08:31:52.497Z,19.60
2017-05-19T08:34:19.867Z,19.60
2017-05-19T08:36:46.905Z,19.50
2017-05-19T08:39:13.979Z,19.60
2017-05-19T08:41:42.069Z,19.70
2017-05-19T08:44:09.165Z,20.00
2017-05-19T08:46:36.216Z,20.00
2017-05-19T08:49:03.673Z,20.00
2017-05-19T08:51:31.495Z,20.00
2017-05-19T08:53:58.545Z,19.90
2017-05-19T08:56:25.924Z,19.80
2017-05-19T08:58:52.977Z,20.00
2017-05-19T09:01:20.037Z,20.10
2017-05-19T09:03:47.375Z,20.10
2017-05-19T09:06:14.425Z,20.20
2017-05-19T09:08:42.237Z,20.40
2017-05-19T09:11:09.631Z,20.50
2017-05-19T09:13:36.660Z,20.40
2017-05-19T09:16:03.707Z,20.40
2017-05-19T09:18:31.091Z,20.40
2017-05-19T09:20:58.133Z,20.30
2017-05-19T09:23:25.941Z,20.10
2017-05-19T09:25:53.324Z,20.40
2017-05-19T09:28:20.381Z,20.30
2017-05-19T09:30:48.137Z,20.10
2017-05-19T09:33:15.600Z,20.20
2017-05-19T09:35:42.685Z,20.20
2017-05-19T09:38:09.753Z,20.30
2017-05-19T09:40:37.675Z,20.60
2017-05-19T09:43:05.028Z,20.70
2017-05-19T09:45:33.351Z,20.90
2017-05-19T09:48:01.600Z,20.90
2017-05-19T09:50:28.788Z,20.90
2017-05-19T09:52:55.848Z,21.10
2017-05-19T09:55:23.165Z,21.10
2017-05-19T09:57:50.245Z,21.40
2017-05-19T10:00:18.040Z,21.20
2017-05-19T10:02:45.687Z,21.30
2017-05-19T10:05:12.728Z,21.10
2017-05-19T10:07:40.538Z,21.20
2017-05-19T10:10:08.889Z,21.30
2017-05-19T10:12:36.801Z,21.50
2017-05-19T10:15:03.987Z,21.60
2017-05-19T10:17:32.901Z,21.70
2017-05-19T10:20:00.025Z,21.60
2017-05-19T10:22:27.076Z,21.80
2017-05-19T10:24:54.491Z,21.90
2017-05-19T10:27:21.556Z,21.90
2017-05-19T10:29:48.587Z,22.00
2017-05-19T10:32:16.257Z,22.00
2017-05-19T10:34:44.066Z,22.00
2017-05-19T10:37:11.117Z,22.30
2017-05-19T10:39:38.641Z,22.20
2017-05-19T10:42:05.672Z,22.10
2017-05-19T10:44:33.570Z,22.20
2017-05-19T10:47:02.653Z,22.30
2017-05-19T10:49:30.888Z,22.40
2017-05-19T10:51:57.981Z,22.40
2017-05-19T10:54:25.923Z,22.50
2017-05-19T10:56:53.000Z,22.50
2017-05-19T10:59:20.027Z,22.50
2017-05-19T11:01:47.468Z,22.50
2017-05-19T11:04:14.599Z,22.70
2017-05-19T11:06:41.643Z,22.80
2017-05-19T11:09:09.769Z,22.90
2017-05-19T11:11:37.016Z,23.00
2017-05-19T11:14:04.082Z,22.80
2017-05-19T11:16:31.556Z,22.70
2017-05-19T11:18:58.601Z,22.50
2017-05-19T11:21:26.407Z,22.70
2017-05-19T11:23:53.847Z,22.90
2017-05-19T11:26:20.889Z,22.90
2017-05-19T11:28:47.946Z,23.20
2017-05-19T11:31:15.372Z,23.40
2017-05-19T11:33:43.197Z,23.40
2017-05-19T11:36:10.245Z,23.30
2017-05-19T11:38:37.727Z,23.30
2017-05-19T11:41:04.763Z,23.30
2017-05-19T11:43:31.803Z,23.30
2017-05-19T11:45:59.188Z,23.40
2017-05-19T11:48:26.303Z,23.70
2017-05-19T11:50:53.336Z,24.00
2017-05-19T11:53:20.742Z,24.20
2017-05-19T11:55:47.782Z,24.00
2017-05-19T11:58:14.950Z,24.00
2017-05-19T12:00:42.334Z,24.00
2017-05-19T12:03:09.379Z,24.20
2017-05-19T12:05:37.208Z,24.00
2017-05-19T12:08:04.640Z,24.10
2017-05-19T12:10:31.701Z,24.00
2017-05-19T12:12:58.732Z,24.20
2017-05-19T12:15:26.145Z,24.00
2017-05-19T12:17:53.209Z,24.10
2017-05-19T12:20:21.013Z,24.30
2017-05-19T12:22:48.454Z,24.70
2017-05-19T12:25:15.585Z,24.80
2017-05-19T12:27:42.662Z,25.00
2017-05-19T12:30:10.716Z,24.80
2017-05-19T12:32:37.775Z,24.90
2017-05-19T12:35:04.863Z,25.20
2017-05-19T12:37:32.235Z,25.20
2017-05-19T12:40:00.024Z,25.10
2017-05-19T12:42:27.081Z,24.80
2017-05-19T12:44:54.515Z,24.40
2017-05-19T12:47:21.601Z,24.70
2017-05-19T12:49:48.657Z,24.90
2017-05-19T12:52:23.006Z,25.20
2017-05-19T12:54:50.823Z,25.50
2017-05-19T12:57:17.913Z,26.20
2017-05-19T12:59:46.124Z,26.70
2017-05-19T13:02:13.155Z,26.70
2017-05-19T13:04:40.227Z,26.70
2017-05-19T13:07:07.620Z,26.20
2017-05-19T13:09:34.707Z,26.10
2017-05-19T13:12:01.755Z,26.00
2017-05-19T13:14:29.197Z,25.90
2017-05-19T13:16:56.297Z,26.10
2017-05-19T13:19:23.361Z,26.30
2017-05-19T13:21:50.741Z,26.50
2017-05-19T13:24:17.806Z,26.60
2017-05-19T13:26:44.882Z,26.60
2017-05-19T13:29:12.358Z,26.50
2017-05-19T13:31:40.324Z,26.80
2017-05-19T13:34:07.376Z,26.80
2017-05-19T13:36:34.724Z,26.90
2017-05-19T13:39:01.769Z,27.00
2017-05-19T13:41:29.583Z,26.70
2017-05-19T13:43:56.996Z,26.70
2017-05-19T13:46:24.009Z,26.90
2017-05-19T13:48:51.021Z,26.80
2017-05-19T13:51:18.368Z,26.80
2017-05-19T13:53:45.404Z,26.60
2017-05-19T13:56:13.204Z,27.00
2017-05-19T13:58:40.615Z,27.00
2017-05-19T14:01:07.684Z,27.40
2017-05-19T14:03:34.749Z,27.40
2017-05-19T14:06:02.245Z,27.10
2017-05-19T14:11:07.481Z,26.80
2017-05-19T14:13:35.697Z,26.90
2017-05-19T14:16:02.741Z,27.30
2017-05-19T14:18:32.444Z,27.40
2017-05-19T14:20:59.496Z,27.20
2017-05-19T14:23:26.515Z,28.20
2017-05-19T14:25:53.969Z,29.10
2017-05-19T14:30:57.999Z,29.80
2017-05-19T14:33:25.060Z,29.40
2017-05-19T14:35:52.080Z,29.50
2017-05-19T14:38:20.256Z,28.80
2017-05-19T14:40:48.045Z,28.70
2017-05-19T14:43:15.090Z,28.80
2017-05-19T14:45:42.493Z,29.50
2017-05-19T14:48:09.516Z,30.10
2017-05-19T14:50:36.585Z,30.10
2017-05-19T14:53:04.065Z,30.70
2017-05-19T14:55:31.112Z,29.60
2017-05-19T14:57:58.149Z,28.80
2017-05-19T15:00:25.560Z,29.00
2017-05-19T15:02:52.571Z,29.10
2017-05-19T15:05:19.615Z,29.50
2017-05-19T15:07:47.656Z,29.60
2017-05-19T15:10:14.661Z,30.50
2017-05-19T15:12:41.725Z,31.20
2017-05-19T15:15:09.114Z,30.70
2017-05-19T15:17:36.896Z,30.70
2017-05-19T15:20:04.590Z,31.50
2017-05-19T15:22:31.978Z,31.00
2017-05-19T15:24:59.758Z,32.30
2017-05-19T15:27:26.788Z,33.10
2017-05-19T15:29:55.056Z,33.20
2017-05-19T15:32:22.115Z,32.50
2017-05-19T15:34:49.164Z,30.70
2017-05-19T15:37:16.481Z,30.80
2017-05-19T15:39:43.486Z,30.40
2017-05-19T15:42:10.510Z,31.10
2017-05-19T15:44:38.039Z,31.50
2017-05-19T15:47:05.061Z,31.00
2017-05-19T15:49:32.129Z,31.10
2017-05-19T15:51:59.566Z,30.40
2017-05-19T15:54:26.599Z,29.80
2017-05-19T15:56:53.639Z,30.30
2017-05-19T15:59:21.020Z,30.50
2017-05-19T16:01:48.091Z,31.70
2017-05-19T16:04:15.111Z,31.00
2017-05-19T16:06:43.121Z,30.70
2017-05-19T16:09:10.135Z,30.20
2017-05-19T16:11:37.252Z,29.40
2017-05-19T16:14:04.628Z,29.50
2017-05-19T16:16:32.391Z,29.50
2017-05-19T16:18:59.409Z,31.00
2017-05-19T16:21:26.795Z,31.50
2017-05-19T16:23:54.556Z,30.40
2017-05-19T16:26:22.329Z,31.00
2017-05-19T16:28:50.395Z,31.40
2017-05-19T16:31:18.180Z,31.40
2017-05-19T16:33:45.240Z,31.50
2017-05-19T16:36:12.611Z,30.90
2017-05-19T16:38:39.657Z,30.30
2017-05-19T16:41:06.719Z,30.20
2017-05-19T16:43:34.985Z,30.30
2017-05-19T16:46:35.317Z,30.40
2017-05-19T16:51:38.533Z,29.30
2017-05-19T16:56:42.353Z,29.50
2017-05-19T16:59:09.302Z,29.00
2017-05-19T17:01:36.328Z,29.10
2017-05-19T17:06:45.276Z,28.30
2017-05-19T17:09:12.573Z,28.70
2017-05-19T17:11:39.801Z,29.10
2017-05-19T17:14:06.827Z,28.70
2017-05-19T17:16:34.186Z,28.10
2017-05-19T17:19:01.094Z,27.90
2017-05-19T17:21:28.044Z,27.60
2017-05-19T17:23:55.020Z,27.20
2017-05-19T17:26:21.971Z,27.10
2017-05-19T17:28:49.334Z,26.80
2017-05-19T17:31:16.287Z,26.00
2017-05-19T17:33:43.240Z,25.40
2017-05-19T17:36:10.198Z,25.30
2017-05-19T17:38:37.172Z,25.20
2017-05-19T17:41:04.514Z,24.80
2017-05-19T17:43:31.512Z,25.20
2017-05-19T17:45:58.434Z,25.50
2017-05-19T17:48:25.473Z,25.60
2017-05-19T17:50:52.417Z,26.00
2017-05-19T17:53:19.756Z,26.20
2017-05-19T17:55:46.745Z,26.20
2017-05-19T17:58:13.656Z,25.90
2017-05-19T18:00:40.617Z,25.20
2017-05-19T18:03:07.536Z,24.50
2017-05-19T18:05:34.472Z,24.10
2017-05-19T18:08:01.828Z,23.50
2017-05-19T18:10:28.800Z,23.00
2017-05-19T18:12:55.763Z,22.50
2017-05-19T18:15:23.217Z,22.10
2017-05-19T18:17:50.159Z,21.90
2017-05-19T18:20:17.088Z,22.00
2017-05-19T18:22:44.395Z,21.90
2017-05-19T18:25:11.350Z,21.50
2017-05-19T18:27:38.270Z,21.50
2017-05-19T18:30:05.677Z,21.50
2017-05-19T18:32:32.616Z,21.50
2017-05-19T18:34:59.549Z,21.40
2017-05-19T18:37:26.491Z,21.10
2017-05-19T18:39:53.451Z,21.20
2017-05-19T18:42:20.757Z,20.90
2017-05-19T18:44:47.671Z,20.80
2017-05-19T18:47:14.734Z,20.90
2017-05-19T18:49:42.205Z,20.90
2017-05-19T18:52:09.137Z,20.90
2017-05-19T18:54:36.094Z,20.80
2017-05-19T18:57:03.429Z,20.60
2017-05-19T18:59:30.388Z,20.50
2017-05-19T19:01:57.295Z,20.50
2017-05-19T19:04:24.227Z,20.40
2017-05-19T19:06:51.164Z,20.40
2017-05-19T19:09:18.564Z,20.30
2017-05-19T19:11:45.504Z,20.20
2017-05-19T19:14:12.468Z,20.30
2017-05-19T19:16:39.440Z,20.30
2017-05-19T19:19:06.384Z,20.20
2017-05-19T19:21:33.760Z,20.10
2017-05-19T19:24:00.704Z,20.30
2017-05-19T19:26:27.621Z,20.30
2017-05-19T19:28:54.762Z,20.40
2017-05-19T19:31:21.691Z,20.40
2017-05-19T19:33:48.625Z,20.30
2017-05-19T19:36:15.849Z,20.30
2017-05-19T19:38:42.808Z,20.20
2017-05-19T19:41:09.720Z,20.30
2017-05-19T19:43:36.888Z,20.30
2017-05-19T19:46:03.833Z,20.30
2017-05-19T19:48:30.768Z,20.00
2017-05-19T19:50:57.732Z,19.90
2017-05-19T19:53:24.735Z,20.00
2017-05-19T19:55:52.109Z,19.80
2017-05-19T19:58:19.143Z,19.70
2017-05-19T20:00:46.169Z,19.60
2017-05-19T20:03:13.421Z,19.70
2017-05-19T20:05:40.341Z,19.70
2017-05-19T20:08:07.300Z,19.90
2017-05-19T20:10:34.488Z,19.80
2017-05-19T20:13:01.433Z,19.90
2017-05-19T20:15:28.369Z,19.80
2017-05-19T20:17:55.626Z,19.80
2017-05-19T20:20:22.536Z,19.80
2017-05-19T20:22:49.496Z,19.70
2017-05-19T20:25:16.641Z,19.40
2017-05-19T20:27:43.609Z,19.10
2017-05-19T20:30:10.527Z,19.20
2017-05-19T20:32:37.804Z,19.20
2017-05-19T20:35:05.052Z,19.10
2017-05-19T20:37:32.021Z,18.80
2017-05-19T20:39:59.218Z,18.70
2017-05-19T20:42:26.181Z,18.50
2017-05-19T20:44:53.129Z,18.20
2017-05-19T20:47:20.153Z,18.20
2017-05-19T20:49:47.068Z,17.70
2017-05-19T20:52:14.466Z,17.40
2017-05-19T20:54:41.380Z,17.20
2017-05-19T20:57:08.301Z,17.20
2017-05-19T20:59:35.250Z,17.10
2017-05-19T21:02:02.199Z,16.90
2017-05-19T21:04:29.160Z,16.60
2017-05-19T21:06:56.315Z,16.50
2017-05-19T21:09:23.296Z,16.40
2017-05-19T21:11:50.228Z,16.30
2017-05-19T21:14:17.482Z,16.60
2017-05-19T21:16:44.385Z,16.50
2017-05-19T21:19:11.327Z,16.30
2017-05-19T21:21:38.705Z,16.10
2017-05-19T21:24:05.725Z,16.00
2017-05-19T21:26:32.661Z,16.00
2017-05-19T21:29:00.895Z,15.90
2017-05-19T21:31:27.824Z,15.70
2017-05-19T21:33:54.800Z,15.60
2017-05-19T21:36:22.087Z,15.60
2017-05-19T21:38:49.048Z,15.70
2017-05-19T21:41:15.953Z,15.60
2017-05-19T21:43:43.185Z,15.40
2017-05-19T21:46:10.101Z,15.10
2017-05-19T21:48:37.008Z,14.90
2017-05-19T21:51:03.967Z,14.90
2017-05-19T21:53:30.998Z,14.80
2017-05-19T21:55:58.050Z,14.50
2017-05-19T21:58:24.977Z,14.30
2017-05-19T22:00:51.938Z,14.00
2017-05-19T22:03:19.072Z,13.90
2017-05-19T22:05:45.999Z,14.10
2017-05-19T22:08:12.907Z,13.70
2017-05-19T22:10:40.127Z,13.90
2017-05-19T22:13:07.049Z,13.90
2017-05-19T22:15:34.000Z,13.80
2017-05-19T22:18:01.369Z,13.60
2017-05-19T22:20:28.280Z,13.70
2017-05-19T22:22:55.159Z,13.70
2017-05-19T22:25:22.417Z,13.70
2017-05-19T22:27:49.329Z,13.90
2017-05-19T22:30:16.371Z,13.90
2017-05-19T22:32:43.525Z,14.00
2017-05-19T22:35:10.582Z,13.90
2017-05-19T22:37:38.039Z,14.10
2017-05-19T22:40:04.989Z,14.00
2017-05-19T22:42:31.901Z,13.90
2017-05-19T22:44:58.849Z,13.90
2017-05-19T22:47:25.742Z,14.00
2017-05-19T22:49:53.098Z,14.00
2017-05-19T22:52:20.004Z,14.00
2017-05-19T22:54:46.989Z,13.90
2017-05-19T22:57:13.936Z,13.70
2017-05-19T22:59:40.837Z,13.70
2017-05-19T23:02:08.137Z,13.60
2017-05-19T23:04:35.033Z,13.80
2017-05-19T23:07:01.975Z,13.80
2017-05-19T23:09:28.909Z,14.10
2017-05-19T23:11:55.824Z,14.00
2017-05-19T23:14:22.958Z,14.10
2017-05-19T23:16:49.882Z,14.10
2017-05-19T23:19:16.801Z,14.10
2017-05-19T23:21:43.902Z,14.20
2017-05-19T23:24:10.799Z,14.00
2017-05-19T23:26:37.993Z,14.10
2017-05-19T23:29:05.289Z,14.10
2017-05-19T23:31:32.197Z,14.10
2017-05-19T23:33:59.152Z,14.10
2017-05-19T23:36:26.252Z,14.30
2017-05-19T23:38:53.188Z,14.20
2017-05-19T23:41:20.106Z,14.00
2017-05-19T23:43:47.428Z,14.10
2017-05-19T23:46:14.315Z,14.10
2017-05-19T23:48:41.215Z,14.30
2017-05-19T23:51:08.264Z,14.00
2017-05-19T23:53:35.173Z,14.00
2017-05-19T23:56:02.096Z,14.00
2017-05-19T23:58:29.220Z,14.00
